Time;durP1;ratioP1;P1;durP2;ratioP2;P2;SDS_P1;SDS_P2;PMS_P1;PMS_P2;Temp;Humidity;BMP_temperature;BMP_pressure;BME280_temperature;BME280_humidity;BME280_pressure;Samples;Min_cycle;Max_cycle;Signal;HPM_P1;HPM_P2
2022/04/06 00:02:09;;;;;;;1.08;0.80;;;22.20;37.70;;;;;;4988124;28;20038;-62
2022/04/06 00:04:35;;;;;;;1.20;0.90;;;22.10;37.70;;;;;;4991409;28;20052;-62
2022/04/06 00:07:01;;;;;;;1.00;0.80;;;22.10;37.80;;;;;;4989348;28;20030;-64
2022/04/06 00:09:26;;;;;;;1.33;0.98;;;22.10;37.80;;;;;;4992713;28;20490;-60
2022/04/06 00:11:52;;;;;;;0.90;0.80;;;22.10;37.80;;;;;;4992725;28;20034;-60
2022/04/06 00:14:18;;;;;;;1.35;0.80;;;22.10;37.80;;;;;;4991696;28;20553;-60
2022/04/06 00:16:43;;;;;;;1.02;0.80;;;22.10;37.90;;;;;;4990732;28;20049;-62
2022/04/06 00:19:09;;;;;;;1.17;0.82;;;22.00;37.90;;;;;;4994370;28;20732;-60
2022/04/06 00:21:35;;;;;;;2.13;1.00;;;22.00;38.00;;;;;;4994041;28;20581;-61
2022/04/06 00:24:01;;;;;;;0.90;0.70;;;22.00;38.00;;;;;;4994085;28;20136;-58
2022/04/06 00:26:27;;;;;;;1.08;0.80;;;22.00;38.00;;;;;;4995938;28;20096;-64
2022/04/06 00:28:52;;;;;;;1.10;0.80;;;22.00;38.00;;;;;;4992607;28;20093;-61
2022/04/06 00:31:18;;;;;;;2.00;0.80;;;22.00;38.10;;;;;;4993532;28;20115;-64
2022/04/06 00:33:44;;;;;;;0.98;0.70;;;21.90;38.10;;;;;;4993024;28;20475;-64
2022/04/06 00:36:09;;;;;;;0.82;0.68;;;21.90;38.10;;;;;;4994709;28;20026;-60
2022/04/06 00:38:35;;;;;;;1.08;0.80;;;21.90;38.10;;;;;;4990693;28;20431;-61
2022/04/06 00:41:01;;;;;;;0.80;0.60;;;21.90;38.20;;;;;;4995422;28;20072;-61
2022/04/06 00:43:26;;;;;;;1.17;0.73;;;21.80;38.10;;;;;;4993110;28;20030;-62
2022/04/06 00:45:52;;;;;;;1.33;0.70;;;21.80;38.20;;;;;;4994462;28;20026;-64
2022/04/06 00:48:18;;;;;;;1.00;0.70;;;21.80;38.20;;;;;;4991901;28;20042;-62
2022/04/06 00:50:44;;;;;;;0.80;0.70;;;21.80;38.30;;;;;;4995136;28;20080;-60
2022/04/06 00:53:13;;;;;;;0.68;0.63;;;21.80;38.30;;;;;;4990577;28;20029;-62
2022/04/06 00:55:40;;;;;;;1.38;0.93;;;21.80;38.40;;;;;;4995612;28;20030;-62
2022/04/06 00:58:07;;;;;;;0.60;0.60;;;21.80;38.40;;;;;;4993042;28;20132;-61
2022/04/06 01:00:32;;;;;;;1.13;0.70;;;21.80;38.40;;;;;;4992870;28;20045;-64
2022/04/06 01:02:59;;;;;;;1.23;0.77;;;21.80;38.40;;;;;;4988459;28;20434;-63
2022/04/06 01:05:25;;;;;;;0.70;0.70;;;21.70;38.40;;;;;;4994973;28;20038;-61
2022/04/06 01:07:52;;;;;;;1.13;0.75;;;21.70;38.40;;;;;;4995276;28;20022;-60
2022/04/06 01:10:17;;;;;;;0.55;0.55;;;21.70;38.40;;;;;;4996025;28;20022;-60
2022/04/06 01:12:47;;;;;;;1.27;0.70;;;21.70;38.40;;;;;;4995849;28;20113;-64
2022/04/06 01:15:14;;;;;;;0.75;0.50;;;21.70;38.50;;;;;;4992130;28;20505;-59
2022/04/06 01:17:40;;;;;;;0.95;0.68;;;21.70;38.50;;;;;;4992626;28;20564;-61
2022/04/06 01:20:07;;;;;;;0.80;0.60;;;21.70;38.50;;;;;;4993935;28;20105;-60
2022/04/06 01:22:34;;;;;;;0.95;0.65;;;21.60;38.50;;;;;;4994877;28;20640;-60
2022/04/06 01:25:02;;;;;;;0.70;0.70;;;21.70;38.60;;;;;;4993782;28;20021;-60
2022/04/06 01:27:28;;;;;;;1.27;0.70;;;21.60;38.60;;;;;;4995519;28;20486;-63
2022/04/06 01:29:54;;;;;;;1.05;0.70;;;21.60;38.60;;;;;;4992457;28;20030;-63
2022/04/06 01:32:26;;;;;;;0.70;0.70;;;21.60;38.60;;;;;;4991641;28;20053;-58
2022/04/06 01:34:54;;;;;;;1.02;0.70;;;21.60;38.70;;;;;;4993615;28;20033;-63
2022/04/06 01:37:20;;;;;;;1.50;0.75;;;21.60;38.70;;;;;;4994434;28;20041;-60
2022/04/06 01:39:47;;;;;;;0.98;0.68;;;21.50;38.60;;;;;;4989934;28;20037;-59
2022/04/06 01:42:15;;;;;;;0.70;0.60;;;21.60;38.70;;;;;;4993507;28;20026;-61
2022/04/06 01:44:44;;;;;;;1.17;0.90;;;21.60;38.70;;;;;;4994330;28;20049;-60
2022/04/06 01:47:10;;;;;;;0.82;0.65;;;21.50;38.70;;;;;;4988981;28;20366;-61
2022/04/06 01:52:21;;;;;;;1.45;0.60;;;21.50;38.70;;;;;;4994878;28;20037;-59
2022/04/06 01:54:50;;;;;;;1.20;0.80;;;21.50;38.70;;;;;;4992676;28;20022;-63
2022/04/06 01:57:17;;;;;;;0.60;0.60;;;21.50;38.70;;;;;;4993489;28;20034;-59
2022/04/06 01:59:43;;;;;;;0.82;0.70;;;21.50;38.80;;;;;;4995654;28;20579;-60
2022/04/06 02:02:11;;;;;;;1.15;0.70;;;21.50;38.80;;;;;;4989711;28;20046;-60
2022/04/06 02:04:38;;;;;;;0.90;0.70;;;21.40;38.80;;;;;;4993706;28;20465;-60
2022/04/06 02:07:05;;;;;;;1.52;0.70;;;21.40;38.80;;;;;;4994951;28;20030;-59
2022/04/06 02:09:30;;;;;;;0.90;0.70;;;21.40;38.80;;;;;;4993358;28;20422;-59
2022/04/06 02:11:56;;;;;;;0.52;0.50;;;21.40;38.80;;;;;;4992907;28;20114;-61
2022/04/06 02:14:26;;;;;;;1.35;0.70;;;21.40;38.90;;;;;;4994065;28;20054;-63
2022/04/06 02:16:52;;;;;;;1.02;0.80;;;21.40;38.90;;;;;;4992296;28;20030;-60
2022/04/06 02:19:18;;;;;;;0.98;0.70;;;21.40;38.90;;;;;;4990921;28;20034;-62
2022/04/06 02:21:44;;;;;;;0.73;0.65;;;21.40;38.90;;;;;;4992248;28;20062;-60
2022/04/06 02:24:09;;;;;;;1.15;0.77;;;21.40;38.90;;;;;;4993083;28;20026;-60
2022/04/06 02:26:35;;;;;;;1.23;0.70;;;21.40;39.00;;;;;;4992239;28;20030;-60
2022/04/06 02:29:01;;;;;;;0.73;0.63;;;21.30;38.90;;;;;;4995600;28;20452;-59
2022/04/06 02:31:27;;;;;;;0.85;0.60;;;21.30;39.00;;;;;;4991617;28;20562;-60
2022/04/06 02:33:52;;;;;;;0.95;0.68;;;21.30;39.00;;;;;;4989390;28;20068;-58
2022/04/06 02:36:18;;;;;;;0.52;0.52;;;21.30;39.00;;;;;;4990852;28;20080;-62
2022/04/06 02:38:44;;;;;;;0.93;0.60;;;21.30;39.00;;;;;;4994531;28;20545;-60
2022/04/06 02:41:10;;;;;;;0.68;0.63;;;21.30;39.00;;;;;;4992984;28;20367;-60
2022/04/06 02:43:36;;;;;;;0.73;0.70;;;21.30;39.00;;;;;;4990803;28;20105;-59
2022/04/06 02:46:02;;;;;;;0.60;0.60;;;21.30;39.00;;;;;;4994206;28;20097;-60
2022/04/06 02:48:28;;;;;;;1.30;0.70;;;21.30;39.10;;;;;;4991152;28;20053;-60
2022/04/06 02:50:54;;;;;;;0.65;0.60;;;21.30;39.10;;;;;;4993371;28;20074;-63
2022/04/06 02:53:20;;;;;;;0.63;0.60;;;21.30;39.10;;;;;;4992112;28;20049;-63
2022/04/06 02:55:46;;;;;;;0.98;0.70;;;21.30;39.10;;;;;;4995308;28;20335;-60
2022/04/06 02:58:11;;;;;;;1.10;0.80;;;21.30;39.10;;;;;;4991201;28;20558;-60
2022/04/06 03:00:37;;;;;;;0.93;0.70;;;21.20;39.00;;;;;;4993302;28;20391;-63
2022/04/06 03:03:03;;;;;;;0.60;0.60;;;21.20;39.00;;;;;;4990649;28;20100;-60
2022/04/06 03:05:29;;;;;;;0.70;0.60;;;21.20;39.10;;;;;;4993273;28;20156;-63
2022/04/06 03:07:54;;;;;;;0.82;0.70;;;21.20;39.10;;;;;;4992869;28;20029;-60
2022/04/06 03:10:20;;;;;;;0.82;0.70;;;21.20;39.10;;;;;;4993858;28;20030;-59
2022/04/06 03:12:46;;;;;;;0.90;0.90;;;21.20;39.10;;;;;;4992569;28;20030;-61
2022/04/06 03:15:12;;;;;;;0.70;0.70;;;21.20;39.10;;;;;;4990862;28;20120;-63
2022/04/06 03:17:38;;;;;;;1.05;0.70;;;21.20;39.20;;;;;;4989247;28;20030;-63
2022/04/06 03:20:05;;;;;;;0.90;0.60;;;21.20;39.10;;;;;;4991465;28;20228;-63
2022/04/06 03:22:31;;;;;;;0.77;0.50;;;21.20;39.20;;;;;;4993983;28;20030;-60
2022/04/06 03:24:57;;;;;;;0.80;0.70;;;21.10;39.10;;;;;;4983989;28;20034;-63
2022/04/06 03:27:23;;;;;;;0.77;0.65;;;21.10;39.20;;;;;;4993502;28;20118;-61
2022/04/06 03:29:49;;;;;;;0.85;0.60;;;21.20;39.10;;;;;;4990089;28;20108;-63
2022/04/06 03:32:14;;;;;;;1.15;0.80;;;21.10;39.20;;;;;;4990951;28;20040;-60
2022/04/06 03:34:40;;;;;;;0.73;0.57;;;21.10;39.20;;;;;;4989663;28;20143;-60
2022/04/06 03:37:06;;;;;;;1.10;0.73;;;21.10;39.20;;;;;;4993835;28;20994;-59
2022/04/06 03:39:32;;;;;;;0.90;0.70;;;21.10;39.20;;;;;;5003289;28;20390;-60
2022/04/06 03:41:58;;;;;;;0.90;0.70;;;21.10;39.20;;;;;;4988940;28;20096;-58
2022/04/06 03:44:24;;;;;;;0.70;0.57;;;21.10;39.20;;;;;;4991730;28;20037;-60
2022/04/06 03:46:49;;;;;;;0.80;0.70;;;21.10;39.20;;;;;;5001728;28;20033;-63
2022/04/06 03:49:16;;;;;;;0.95;0.60;;;21.10;39.30;;;;;;4992117;28;20018;-59
2022/04/06 03:51:42;;;;;;;1.00;0.70;;;21.10;39.20;;;;;;4992943;28;20097;-59
2022/04/06 03:54:08;;;;;;;0.73;0.70;;;21.10;39.30;;;;;;4996637;28;20030;-59
2022/04/06 03:56:34;;;;;;;1.10;0.80;;;21.10;39.20;;;;;;4995863;28;20116;-59
2022/04/06 03:58:59;;;;;;;1.05;0.75;;;21.10;39.20;;;;;;4997655;28;20084;-61
2022/04/06 04:01:25;;;;;;;1.05;0.60;;;21.10;39.20;;;;;;4993827;28;20455;-63
2022/04/06 04:03:50;;;;;;;1.42;0.70;;;21.10;39.20;;;;;;4995060;28;20080;-61
2022/04/06 04:06:16;;;;;;;0.60;0.60;;;21.10;39.20;;;;;;4995374;28;20469;-59
2022/04/06 04:08:42;;;;;;;1.35;0.80;;;21.10;39.30;;;;;;4996477;28;20481;-61
2022/04/06 04:11:08;;;;;;;0.80;0.60;;;21.00;39.20;;;;;;4997024;28;20388;-60
2022/04/06 04:13:34;;;;;;;0.63;0.50;;;21.00;39.20;;;;;;4996212;28;20087;-61
2022/04/06 04:16:00;;;;;;;0.93;0.60;;;21.10;39.20;;;;;;4996403;28;20108;-59
2022/04/06 04:18:25;;;;;;;0.50;0.50;;;21.10;39.20;;;;;;5008530;28;20077;-59
2022/04/06 04:21:31;;;;;;;0.77;0.68;;;21.00;39.20;;;;;;4993884;28;20034;-60
2022/04/06 04:23:36;;;;;;;0.93;0.70;;;21.00;39.20;;;;;;4994828;28;20069;-60
2022/04/06 04:26:02;;;;;;;0.60;0.60;;;21.00;39.20;;;;;;4995604;28;20432;-60
2022/04/06 04:28:28;;;;;;;0.90;0.60;;;21.00;39.20;;;;;;4996370;28;20030;-60
2022/04/06 04:30:53;;;;;;;0.60;0.60;;;21.00;39.30;;;;;;4991659;28;20427;-61
2022/04/06 04:33:19;;;;;;;0.90;0.70;;;21.00;39.40;;;;;;4990682;28;20034;-60
2022/04/06 04:35:44;;;;;;;1.08;0.95;;;21.00;39.40;;;;;;4993758;28;20566;-57
2022/04/06 04:38:11;;;;;;;1.33;1.00;;;20.90;39.40;;;;;;4995822;28;20156;-60
2022/04/06 04:40:37;;;;;;;1.60;1.25;;;21.00;39.40;;;;;;4995074;28;20045;-59
2022/04/06 04:43:03;;;;;;;1.50;0.95;;;20.90;39.40;;;;;;4994772;28;20060;-62
2022/04/06 04:45:28;;;;;;;1.48;0.90;;;20.90;39.40;;;;;;4992581;28;20213;-60
2022/04/06 04:47:54;;;;;;;2.10;1.00;;;20.90;39.40;;;;;;4993101;28;20075;-59
2022/04/06 04:50:20;;;;;;;1.50;1.00;;;20.90;39.40;;;;;;4993611;28;20034;-62
2022/04/06 04:52:45;;;;;;;1.58;1.08;;;20.80;39.30;;;;;;4995618;28;20447;-59
2022/04/06 04:55:11;;;;;;;1.70;1.20;;;20.80;39.30;;;;;;4994445;28;20121;-59
2022/04/06 04:57:37;;;;;;;1.50;1.00;;;20.80;39.30;;;;;;4993344;28;20033;-59
2022/04/06 05:00:06;;;;;;;1.40;1.00;;;20.80;39.30;;;;;;4993873;28;20180;-62
2022/04/06 05:02:31;;;;;;;1.42;1.00;;;20.80;39.40;;;;;;4992046;28;20124;-62
2022/04/06 05:04:57;;;;;;;2.20;1.10;;;20.80;39.30;;;;;;4991794;28;20044;-59
2022/04/06 05:07:23;;;;;;;1.80;1.02;;;20.80;39.30;;;;;;4992468;28;20117;-61
2022/04/06 05:09:49;;;;;;;1.25;0.90;;;20.80;39.30;;;;;;4994173;28;20034;-59
2022/04/06 05:12:15;;;;;;;1.73;1.10;;;20.80;39.30;;;;;;4994581;28;20457;-60
2022/04/06 05:14:41;;;;;;;1.40;1.02;;;20.80;39.40;;;;;;4994538;28;20053;-59
2022/04/06 05:17:07;;;;;;;1.52;1.02;;;20.80;39.30;;;;;;4989921;28;20112;-59
2022/04/06 05:19:33;;;;;;;1.10;0.90;;;20.80;39.30;;;;;;4990874;28;20049;-60
2022/04/06 05:21:59;;;;;;;1.38;0.93;;;20.80;39.40;;;;;;4992109;28;20072;-60
2022/04/06 05:24:25;;;;;;;1.25;1.00;;;20.70;39.30;;;;;;4995375;28;20855;-62
2022/04/06 05:26:51;;;;;;;1.52;1.08;;;20.70;39.40;;;;;;4989966;28;20140;-61
2022/04/06 05:29:17;;;;;;;1.23;0.90;;;20.70;39.40;;;;;;4994645;28;20026;-60
2022/04/06 05:31:42;;;;;;;1.70;1.17;;;20.70;39.40;;;;;;4987068;28;20997;-60
2022/04/06 05:34:08;;;;;;;1.48;0.93;;;20.70;39.40;;;;;;4990009;28;20450;-62
2022/04/06 05:36:34;;;;;;;1.52;1.10;;;20.70;39.40;;;;;;4984845;28;20061;-60
2022/04/06 05:38:59;;;;;;;1.75;1.00;;;20.70;39.50;;;;;;4989030;28;20056;-61
2022/04/06 05:41:25;;;;;;;1.33;1.00;;;20.70;39.40;;;;;;4985051;28;20038;-60
2022/04/06 05:43:51;;;;;;;1.38;1.00;;;20.70;39.50;;;;;;4990267;28;20093;-59
2022/04/06 05:46:16;;;;;;;1.40;0.95;;;20.70;40.90;;;;;;5001919;28;20034;-59
2022/04/06 05:48:42;;;;;;;1.35;1.00;;;20.90;41.00;;;;;;5001649;28;20395;-61
2022/04/06 05:51:08;;;;;;;1.58;1.10;;;21.20;41.00;;;;;;4993455;28;20044;-60
2022/04/06 05:53:33;;;;;;;1.42;0.90;;;21.50;40.70;;;;;;4989392;28;20102;-62
2022/04/06 05:55:59;;;;;;;0.93;0.70;;;21.70;40.50;;;;;;4989634;28;20049;-59
2022/04/06 05:58:24;;;;;;;0.82;0.70;;;21.90;40.30;;;;;;4992981;28;20022;-59
2022/04/06 06:00:50;;;;;;;0.93;0.80;;;22.10;40.00;;;;;;4991128;28;20033;-59
2022/04/06 06:03:15;;;;;;;1.20;0.80;;;22.20;40.10;;;;;;4986565;28;20033;-60
2022/04/06 06:05:41;;;;;;;1.30;0.80;;;22.30;40.10;;;;;;4989147;28;20399;-62
2022/04/06 06:08:07;;;;;;;0.63;0.50;;;22.40;40.10;;;;;;4991301;28;20029;-60
2022/04/06 06:10:33;;;;;;;0.60;0.60;;;22.40;39.90;;;;;;4994503;28;20033;-60
2022/04/06 06:12:58;;;;;;;0.63;0.60;;;22.30;39.60;;;;;;4988426;28;20037;-60
2022/04/06 06:15:24;;;;;;;0.45;0.40;;;22.30;39.80;;;;;;4990913;28;20034;-62
2022/04/06 06:17:50;;;;;;;0.73;0.60;;;22.30;40.00;;;;;;4989466;28;20104;-59
2022/04/06 06:20:15;;;;;;;1.00;0.60;;;22.20;40.10;;;;;;4986542;28;20030;-61
2022/04/06 06:22:41;;;;;;;0.70;0.70;;;22.20;40.50;;;;;;4993572;28;20030;-59
2022/04/06 06:25:07;;;;;;;0.60;0.60;;;22.30;40.30;;;;;;4990281;28;20951;-60
2022/04/06 06:27:40;;;;;;;0.55;0.50;;;22.20;40.30;;;;;;5001994;28;20030;-60
2022/04/06 06:30:07;;;;;;;0.65;0.50;;;22.30;40.50;;;;;;4985463;28;20088;-61
2022/04/06 06:32:33;;;;;;;0.52;0.52;;;22.30;40.70;;;;;;4989834;28;20101;-60
2022/04/06 06:34:59;;;;;;;0.55;0.52;;;22.30;40.50;;;;;;4988844;28;20042;-61
2022/04/06 06:37:24;;;;;;;0.60;0.60;;;22.40;40.50;;;;;;4992129;28;20568;-60
2022/04/06 06:39:52;;;;;;;0.40;0.40;;;22.40;40.50;;;;;;4986883;28;20980;-60
2022/04/06 06:42:18;;;;;;;0.80;0.60;;;22.40;40.80;;;;;;4992965;28;20022;-60
2022/04/06 06:44:43;;;;;;;1.23;0.70;;;22.40;40.80;;;;;;4993055;28;20330;-61
2022/04/06 06:47:09;;;;;;;0.60;0.50;;;22.50;40.90;;;;;;4987811;28;20040;-59
2022/04/06 06:49:35;;;;;;;0.70;0.60;;;22.50;41.40;;;;;;4990935;28;20041;-60
2022/04/06 06:52:00;;;;;;;2.90;0.60;;;22.50;41.30;;;;;;4990450;28;20045;-59
2022/04/06 06:54:26;;;;;;;0.40;0.40;;;22.50;41.30;;;;;;4987870;28;20076;-62
2022/04/06 06:56:51;;;;;;;0.65;0.55;;;22.60;41.10;;;;;;4985137;28;20091;-60
2022/04/06 06:59:17;;;;;;;0.47;0.47;;;22.60;41.10;;;;;;4989681;28;20026;-61
2022/04/06 07:01:43;;;;;;;1.60;0.50;;;22.60;41.70;;;;;;4984951;28;20125;-60
2022/04/06 07:04:08;;;;;;;0.40;0.40;;;22.60;41.30;;;;;;4987691;28;20359;-59
2022/04/06 07:06:34;;;;;;;0.50;0.50;;;22.70;41.80;;;;;;4983017;28;20025;-60
2022/04/06 07:08:59;;;;;;;0.45;0.45;;;22.70;41.20;;;;;;4992872;28;20041;-62
2022/04/06 07:11:25;;;;;;;0.82;0.57;;;22.70;41.30;;;;;;4984130;28;20549;-60
2022/04/06 07:13:50;;;;;;;0.85;0.70;;;22.70;41.90;;;;;;4984428;28;20112;-61
2022/04/06 07:16:16;;;;;;;1.05;0.90;;;22.70;40.00;;;;;;4988581;28;20033;-63
2022/04/06 07:18:42;;;;;;;1.10;0.85;;;22.80;38.80;;;;;;4988482;28;20030;-62
2022/04/06 07:21:08;;;;;;;1.00;0.80;;;22.70;38.10;;;;;;4982612;28;20038;-60
2022/04/06 07:23:34;;;;;;;0.90;0.65;;;22.70;38.00;;;;;;4984835;28;20030;-61
2022/04/06 07:25:59;;;;;;;0.52;0.50;;;22.70;37.90;;;;;;4992048;28;20180;-63
2022/04/06 07:28:25;;;;;;;0.80;0.70;;;22.70;38.00;;;;;;4986291;28;20037;-61
2022/04/06 07:30:50;;;;;;;1.17;0.70;;;22.70;38.00;;;;;;4979767;28;20034;-59
2022/04/06 07:33:16;;;;;;;1.88;0.70;;;22.70;38.00;;;;;;4980210;28;20129;-60
2022/04/06 07:35:42;;;;;;;0.93;0.80;;;22.70;38.30;;;;;;4982588;28;20030;-61
2022/04/06 07:38:08;;;;;;;0.70;0.60;;;22.70;39.30;;;;;;4984482;28;20135;-61
2022/04/06 07:40:35;;;;;;;1.58;0.70;;;22.80;38.90;;;;;;4980747;28;20121;-61
2022/04/06 07:43:01;;;;;;;0.75;0.63;;;22.80;38.30;;;;;;4985111;28;20072;-63
2022/04/06 07:45:26;;;;;;;0.73;0.50;;;22.80;38.20;;;;;;4984517;28;20098;-60
2022/04/06 07:47:53;;;;;;;0.50;0.50;;;22.80;38.10;;;;;;4976357;28;20030;-61
2022/04/06 07:50:20;;;;;;;1.00;0.60;;;22.80;38.00;;;;;;4980392;28;20038;-61
2022/04/06 07:52:46;;;;;;;0.60;0.60;;;22.80;38.00;;;;;;4988256;28;20026;-60
2022/04/06 07:55:13;;;;;;;1.08;0.70;;;22.90;38.40;;;;;;4989044;28;20032;-61
2022/04/06 07:57:39;;;;;;;0.60;0.60;;;22.90;38.20;;;;;;4989322;28;20106;-61
2022/04/06 08:00:10;;;;;;;1.27;0.73;;;22.80;38.00;;;;;;4990879;28;20101;-62
2022/04/06 08:02:36;;;;;;;1.08;0.80;;;22.90;38.00;;;;;;4986280;28;20040;-63
2022/04/06 08:05:04;;;;;;;0.60;0.55;;;22.90;38.10;;;;;;4986188;28;20029;-63
2022/04/06 08:07:30;;;;;;;0.90;0.60;;;22.90;38.30;;;;;;4986856;28;20171;-59
2022/04/06 08:09:59;;;;;;;2.13;1.30;;;22.90;39.00;;;;;;4989065;28;20037;-61
2022/04/06 08:12:25;;;;;;;2.30;1.60;;;22.90;38.50;;;;;;4991789;28;20025;-60
2022/04/06 08:14:51;;;;;;;3.03;1.60;;;22.90;38.00;;;;;;4990783;28;20034;-60
2022/04/06 08:17:17;;;;;;;2.97;1.60;;;22.90;37.60;;;;;;4990788;28;20026;-62
2022/04/06 08:19:43;;;;;;;2.25;1.52;;;22.80;37.50;;;;;;4989833;28;20053;-61
2022/04/06 08:22:08;;;;;;;2.58;1.50;;;22.80;37.40;;;;;;4987108;28;20034;-63
2022/04/06 08:24:34;;;;;;;2.58;1.20;;;22.80;37.40;;;;;;4987130;28;20045;-61
2022/04/06 08:27:00;;;;;;;1.70;0.90;;;22.70;37.40;;;;;;4987195;28;20029;-61
2022/04/06 08:29:26;;;;;;;1.02;0.70;;;22.80;37.30;;;;;;4992065;28;20026;-61
2022/04/06 08:31:52;;;;;;;0.82;0.68;;;22.80;37.40;;;;;;4983419;28;20038;-60
2022/04/06 08:34:18;;;;;;;0.50;0.50;;;22.80;37.50;;;;;;4986138;28;20045;-59
2022/04/06 08:36:45;;;;;;;1.13;0.70;;;22.80;37.50;;;;;;4986020;28;20918;-62
2022/04/06 08:39:11;;;;;;;0.77;0.70;;;22.80;37.50;;;;;;4995438;28;20129;-62
2022/04/06 08:41:36;;;;;;;0.77;0.60;;;22.80;37.70;;;;;;5003320;28;20125;-59
2022/04/06 08:44:02;;;;;;;0.68;0.55;;;22.80;37.70;;;;;;4985206;28;20040;-60
2022/04/06 08:46:34;;;;;;;0.50;0.50;;;22.80;37.70;;;;;;4978820;28;20060;-62
2022/04/06 08:49:00;;;;;;;0.90;0.70;;;22.80;37.70;;;;;;4985739;28;20992;-60
2022/04/06 08:51:28;;;;;;;0.50;0.50;;;22.80;37.60;;;;;;4985219;28;20099;-60
2022/04/06 08:53:54;;;;;;;0.65;0.60;;;22.80;37.70;;;;;;4989688;28;20190;-62
2022/04/06 08:56:21;;;;;;;1.35;0.60;;;22.90;37.70;;;;;;4994878;28;20062;-60
2022/04/06 08:58:47;;;;;;;1.05;0.70;;;22.90;37.80;;;;;;4994587;28;20038;-61
2022/04/06 09:01:13;;;;;;;0.68;0.60;;;22.90;37.80;;;;;;4992963;28;20045;-63
2022/04/06 09:03:39;;;;;;;0.90;0.70;;;22.90;37.80;;;;;;4989172;28;20034;-62
2022/04/06 09:06:07;;;;;;;0.60;0.60;;;22.90;37.70;;;;;;4991485;28;20026;-63
2022/04/06 09:08:42;;;;;;;0.70;0.70;;;22.90;37.70;;;;;;4992177;28;20030;-60
2022/04/06 09:11:40;;;;;;;0.43;0.43;;;22.90;37.60;;;;;;4987146;28;20118;-63
2022/04/06 09:14:06;;;;;;;0.77;0.50;;;23.00;37.50;;;;;;4965218;28;20042;-63
2022/04/06 09:16:32;;;;;;;0.80;0.57;;;23.00;37.50;;;;;;4989852;28;20068;-61
2022/04/06 09:19:17;;;;;;;0.93;0.73;;;22.90;37.40;;;;;;4994877;28;20121;-61
2022/04/06 09:21:46;;;;;;;0.60;0.60;;;23.00;37.50;;;;;;4998008;28;20117;-60
2022/04/06 09:24:15;;;;;;;;;;;23.00;38.00;;;;;;4997065;28;20057;-61
2022/04/06 09:26:41;;;;;;;0.95;0.50;;;23.00;37.50;;;;;;4995117;28;19917;-62
2022/04/06 09:29:11;;;;;;;0.90;0.60;;;23.00;37.60;;;;;;4996461;28;20120;-62
2022/04/06 09:31:39;;;;;;;0.52;0.50;;;23.10;37.60;;;;;;4990739;28;20136;-62
2022/04/06 09:34:05;;;;;;;0.50;0.50;;;23.10;37.50;;;;;;4993227;28;20029;-62
2022/04/06 09:36:32;;;;;;;0.70;0.60;;;23.10;37.50;;;;;;4989126;28;20029;-59
2022/04/06 09:38:58;;;;;;;0.70;0.60;;;23.10;37.50;;;;;;4995514;28;20029;-60
2022/04/06 09:41:25;;;;;;;0.95;0.65;;;23.10;37.50;;;;;;4992902;28;20091;-60
2022/04/06 09:43:52;;;;;;;0.60;0.60;;;23.10;37.50;;;;;;5000218;28;20048;-61
2022/04/06 09:49:24;;;;;;;0.55;0.55;;;23.20;37.40;;;;;;4998187;28;20164;-60
2022/04/06 09:51:51;;;;;;;1.10;0.70;;;23.20;37.50;;;;;;4996831;28;20072;-60
2022/04/06 09:54:17;;;;;;;0.82;0.57;;;23.20;37.60;;;;;;5005752;28;20034;-61
2022/04/06 09:56:44;;;;;;;0.98;0.60;;;23.20;37.70;;;;;;5003051;28;20612;-60
2022/04/06 09:59:11;;;;;;;0.77;0.63;;;23.20;37.70;;;;;;4996606;28;20032;-62
2022/04/06 10:01:47;;;;;;;0.85;0.60;;;23.20;37.50;;;;;;4989340;28;20638;-61
2022/04/06 10:04:13;;;;;;;0.60;0.60;;;23.20;37.50;;;;;;4993397;28;20163;-62
2022/04/06 10:06:41;;;;;;;0.43;0.43;;;23.20;37.40;;;;;;4990343;28;20026;-61
2022/04/06 10:09:09;;;;;;;0.60;0.60;;;23.20;37.40;;;;;;4993858;28;20196;-61
2022/04/06 10:11:35;;;;;;;0.82;0.60;;;23.20;37.40;;;;;;4991153;28;20034;-60
2022/04/06 10:14:03;;;;;;;1.20;0.82;;;23.20;37.70;;;;;;4982674;28;20445;-61
2022/04/06 10:16:29;;;;;;;1.42;0.90;;;23.30;37.40;;;;;;4989470;28;20065;-62
2022/04/06 10:18:56;;;;;;;1.08;0.80;;;23.30;37.20;;;;;;4989231;28;20101;-61
2022/04/06 10:21:24;;;;;;;1.27;0.80;;;23.30;37.00;;;;;;4991576;28;20088;-61
2022/04/06 10:24:14;;;;;;;1.15;0.80;;;23.30;36.90;;;;;;4989689;28;20084;-63
2022/04/06 10:27:01;;;;;;;2.05;0.80;;;23.30;36.90;;;;;;4990211;28;20104;-60
2022/04/06 10:29:26;;;;;;;1.80;0.70;;;23.30;36.90;;;;;;4989728;28;20843;-63
2022/04/06 10:31:52;;;;;;;1.35;0.90;;;23.20;36.90;;;;;;4989816;28;20099;-60
2022/04/06 10:34:31;;;;;;;1.10;0.80;;;23.20;36.90;;;;;;4987339;28;20870;-59
2022/04/06 10:37:10;;;;;;;1.88;0.90;;;23.20;36.90;;;;;;4985933;28;20061;-60
2022/04/06 10:39:50;;;;;;;1.75;0.98;;;23.20;36.90;;;;;;4990734;28;20037;-58
2022/04/06 10:42:37;;;;;;;1.20;0.90;;;23.20;37.40;;;;;;4989367;28;20064;-61
2022/04/06 10:45:25;;;;;;;1.15;0.90;;;23.10;37.10;;;;;;4990429;28;20068;-61
2022/04/06 10:48:20;;;;;;;1.52;0.95;;;23.10;37.40;;;;;;4988757;28;20124;-62
2022/04/06 10:50:50;;;;;;;1.60;1.00;;;23.00;37.60;;;;;;4983661;28;20133;-63
2022/04/06 10:53:18;;;;;;;1.52;0.80;;;23.10;37.40;;;;;;4991666;28;20037;-60
2022/04/06 10:56:23;;;;;;;1.13;0.98;;;23.00;37.40;;;;;;4992312;28;20503;-64
2022/04/06 10:58:53;;;;;;;1.00;0.80;;;23.10;37.60;;;;;;4987432;28;20548;-61
2022/04/06 11:01:25;;;;;;;1.65;0.88;;;23.00;37.50;;;;;;4988387;28;20054;-62
2022/04/06 11:03:59;;;;;;;1.38;0.90;;;23.00;37.40;;;;;;4987303;28;20113;-60
2022/04/06 11:06:49;;;;;;;1.20;0.90;;;23.10;37.70;;;;;;4988365;28;20106;-59
2022/04/06 11:12:11;;;;;;;1.33;0.90;;;23.10;37.80;;;;;;4988353;28;20117;-60
2022/04/06 11:14:38;;;;;;;1.10;0.90;;;23.10;37.90;;;;;;4984218;28;20449;-62
2022/04/06 11:17:34;;;;;;;1.65;1.00;;;23.10;38.20;;;;;;4997320;28;20065;-60
2022/04/06 11:20:02;;;;;;;2.67;1.10;;;23.10;38.10;;;;;;4990072;28;20026;-61
2022/04/06 11:22:28;;;;;;;1.88;0.98;;;23.10;38.20;;;;;;4989618;28;20030;-61
2022/04/06 11:24:55;;;;;;;1.50;0.90;;;23.10;38.40;;;;;;4984887;28;20030;-60
2022/04/06 11:27:35;;;;;;;1.38;0.90;;;23.10;38.30;;;;;;4989414;28;20030;-60
2022/04/06 11:30:06;;;;;;;1.50;1.00;;;23.10;38.20;;;;;;4986722;28;20029;-60
2022/04/06 11:32:33;;;;;;;1.77;1.10;;;23.20;38.30;;;;;;4987604;28;20986;-62
2022/04/06 11:35:05;;;;;;;1.38;1.00;;;23.20;38.40;;;;;;4981990;28;20501;-60
2022/04/06 11:37:38;;;;;;;1.35;0.90;;;23.20;38.50;;;;;;4983019;28;20071;-60
2022/04/06 11:40:04;;;;;;;1.02;0.80;;;23.20;38.50;;;;;;4988234;28;20026;-59
2022/04/06 11:42:30;;;;;;;1.38;1.00;;;23.20;38.70;;;;;;4990474;28;20109;-61
2022/04/06 11:44:56;;;;;;;1.40;0.90;;;23.20;38.60;;;;;;4979983;28;20636;-62
2022/04/06 11:47:29;;;;;;;1.45;0.90;;;23.20;38.50;;;;;;4982290;28;20056;-61
2022/04/06 11:49:54;;;;;;;1.23;0.80;;;23.20;38.50;;;;;;4977870;28;20025;-60
2022/04/06 11:52:20;;;;;;;1.55;0.95;;;23.20;38.00;;;;;;4984215;28;20030;-59
2022/04/06 11:54:53;;;;;;;2.15;1.13;;;23.20;37.90;;;;;;4985284;28;20134;-61
2022/04/06 11:57:19;;;;;;;1.88;1.00;;;23.20;37.70;;;;;;4989627;28;20033;-62
2022/04/06 11:59:52;;;;;;;2.25;1.10;;;23.20;37.50;;;;;;4975078;28;20134;-60
2022/04/06 12:02:18;;;;;;;1.08;0.80;;;23.10;37.50;;;;;;4981978;28;20137;-59
2022/04/06 12:04:44;;;;;;;2.25;0.90;;;23.20;37.60;;;;;;4983396;28;20768;-60
2022/04/06 12:07:19;;;;;;;1.30;0.90;;;23.10;37.50;;;;;;4988218;28;20072;-59
2022/04/06 12:09:46;;;;;;;1.00;0.80;;;23.10;37.50;;;;;;4981134;28;20069;-60
2022/04/06 12:12:13;;;;;;;0.90;0.80;;;23.10;37.70;;;;;;4988720;28;20559;-62
2022/04/06 12:14:41;;;;;;;1.17;0.70;;;23.10;37.80;;;;;;4987794;28;20505;-60
2022/04/06 12:17:07;;;;;;;0.50;0.50;;;23.10;37.90;;;;;;4987359;28;20046;-60
2022/04/06 12:19:33;;;;;;;0.88;0.55;;;23.20;38.80;;;;;;4986251;28;20061;-60
2022/04/06 12:22:11;;;;;;;0.50;0.50;;;23.20;39.70;;;;;;4989244;28;20034;-61
2022/04/06 12:24:38;;;;;;;0.57;0.57;;;23.30;39.70;;;;;;4986170;28;20026;-60
2022/04/06 12:27:04;;;;;;;1.05;0.70;;;23.40;39.00;;;;;;4989087;28;20095;-60
2022/04/06 12:29:32;;;;;;;2.58;1.35;;;23.40;38.30;;;;;;4989231;28;20033;-60
2022/04/06 12:31:58;;;;;;;0.60;0.60;;;23.40;38.10;;;;;;4989113;28;20457;-62
2022/04/06 12:34:27;;;;;;;0.50;0.50;;;23.30;38.00;;;;;;4988728;28;20034;-59
2022/04/06 12:36:53;;;;;;;;;;;23.40;38.30;;;;;;4992334;28;20030;-60
2022/04/06 12:39:19;;;;;;;0.57;0.57;;;23.40;38.50;;;;;;4996288;28;19917;-60
2022/04/06 12:41:53;;;;;;;1.00;0.60;;;23.40;38.70;;;;;;4994573;28;20036;-61
2022/04/06 12:44:19;;;;;;;0.95;0.52;;;23.50;38.90;;;;;;4991900;28;20070;-59
2022/04/06 12:46:46;;;;;;;1.08;0.73;;;23.50;38.80;;;;;;4983062;28;20144;-63
2022/04/06 12:49:37;;;;;;;0.82;0.50;;;23.60;39.00;;;;;;4984176;28;20079;-61
2022/04/06 12:52:18;;;;;;;0.80;0.60;;;23.60;39.10;;;;;;4990751;28;20073;-60
2022/04/06 12:54:49;;;;;;;0.75;0.60;;;23.70;39.30;;;;;;4995509;28;20057;-61
2022/04/06 12:57:20;;;;;;;0.95;0.50;;;23.70;39.30;;;;;;4991689;28;20030;-61
2022/04/06 13:00:19;;;;;;;0.73;0.63;;;23.70;39.30;;;;;;4993242;28;20033;-61